Dingwall, United Kingdom
Current Conditions -  °F | °C
As of 4:20 AM on Friday 28 Nov 2014 (Local Time) from EGPE Reporting Station
Light Fog Light Fog  
Wind Chill: 39°   Ceiling: Unl
Heat Index: 39°   Visibility: 6mi
Dew Point: 39°   Wind: 0mph
Humidity: 100%   Direction: NA
Pressure: 29.68"   Gusts: NA
Location:  57.6°N, 4.43°W
Report Text: EGPE 280420Z 00000KT 9999 4000SW R23/1000 BCFG FEW001 04/04 Q1005
Loading
Personal Weather Stations






























Interactive Weather Map New forecast layout! Learn more

10-Day Weather Forecast

Advertisements
Track Severe Weather on mobile